TimeCDT,TemperatureF,Dew PointF,Humidity,Sea Level PressureIn,VisibilityMPH,Wind Direction,Wind SpeedMPH,Gust SpeedMPH,PrecipitationIn,Events,Conditions,WindDirDegrees,DateUTC
12:53 AM,52.0,36.0,54,30.01,10.0,SE,10.4,-,N/A,,Clear,140,2013-05-07 05:53:00
1:53 AM,52.0,37.0,57,30.01,10.0,SE,8.1,-,N/A,,Clear,130,2013-05-07 06:53:00
2:53 AM,54.0,41.0,62,29.99,10.0,SE,9.2,-,N/A,,Mostly Cloudy,130,2013-05-07 07:53:00
3:53 AM,55.0,44.1,67,29.97,10.0,ESE,8.1,-,N/A,,Overcast,110,2013-05-07 08:53:00
4:53 AM,54.0,46.0,75,29.97,10.0,ESE,6.9,-,0.00,,Overcast,110,2013-05-07 09:53:00
5:53 AM,53.1,48.0,83,29.97,9.0,East,5.8,-,0.00,Rain,Light Rain,100,2013-05-07 10:53:00
6:53 AM,53.1,48.9,86,29.97,8.0,SE,11.5,17.3,0.05,Rain,Light Rain,140,2013-05-07 11:53:00
7:53 AM,53.1,50.0,89,29.98,9.0,ESE,6.9,-,0.01,,Overcast,120,2013-05-07 12:53:00
8:53 AM,54.0,51.1,90,29.99,10.0,East,6.9,-,0.00,,Overcast,80,2013-05-07 13:53:00
9:53 AM,54.0,51.1,90,29.99,10.0,East,9.2,-,N/A,,Overcast,90,2013-05-07 14:53:00
10:53 AM,57.0,53.1,87,29.98,7.0,ESE,10.4,-,0.01,Rain,Light Rain,120,2013-05-07 15:53:00
11:03 AM,55.4,51.8,88,30.00,3.0,SE,11.5,-,0.01,Rain,Light Rain,130,2013-05-07 16:03:00
11:53 AM,59.0,53.1,81,29.98,9.0,SE,15.0,-,0.01,,Overcast,140,2013-05-07 16:53:00
12:53 PM,60.1,53.1,78,29.97,10.0,SE,15.0,-,N/A,,Overcast,130,2013-05-07 17:53:00
1:50 PM,60.8,51.8,72,29.96,10.0,SE,16.1,24.2,N/A,,Overcast,140,2013-05-07 18:50:00
1:53 PM,61.0,51.1,70,29.94,10.0,SSE,13.8,-,N/A,,Overcast,150,2013-05-07 18:53:00
2:08 PM,62.6,53.6,72,29.95,10.0,SE,17.3,-,N/A,,Overcast,140,2013-05-07 19:08:00
2:53 PM,64.9,53.1,65,29.91,10.0,SE,16.1,24.2,N/A,,Overcast,130,2013-05-07 19:53:00
3:06 PM,64.4,51.8,64,29.93,10.0,SE,16.1,25.3,N/A,,Overcast,140,2013-05-07 20:06:00
3:25 PM,66.2,53.6,64,29.92,10.0,ESE,18.4,26.5,N/A,,Overcast,120,2013-05-07 20:25:00
3:33 PM,66.2,53.6,64,29.92,10.0,ESE,15.0,-,N/A,,Overcast,120,2013-05-07 20:33:00
3:53 PM,68.0,53.1,59,29.88,10.0,ESE,17.3,20.7,N/A,,Mostly Cloudy,110,2013-05-07 20:53:00
4:53 PM,66.0,53.1,63,29.85,10.0,ESE,18.4,25.3,N/A,,Mostly Cloudy,110,2013-05-07 21:53:00
5:53 PM,69.1,53.1,57,29.84,10.0,ESE,13.8,25.3,N/A,,Scattered Clouds,110,2013-05-07 22:53:00
6:53 PM,68.0,53.1,59,29.83,10.0,ESE,20.7,27.6,N/A,,Overcast,110,2013-05-07 23:53:00
7:53 PM,64.0,53.1,67,29.84,10.0,ESE,13.8,-,N/A,,Scattered Clouds,110,2013-05-08 00:53:00
8:53 PM,59.0,53.1,81,29.87,10.0,East,11.5,-,N/A,,Partly Cloudy,90,2013-05-08 01:53:00
9:53 PM,57.0,52.0,83,29.88,10.0,East,6.9,-,N/A,,Clear,80,2013-05-08 02:53:00
10:53 PM,54.0,52.0,93,29.90,9.0,NE,6.9,-,N/A,,Clear,50,2013-05-08 03:53:00
11:53 PM,54.0,52.0,93,29.90,9.0,ENE,5.8,-,N/A,,Clear,60,2013-05-08 04:53:00